KPEQ

Pecos Municipal Airport

Pecos, Texas, USA
METAR KPEQ 220435Z AUTO 00000KT 10SM CLR 14/M04 A2969 RMK AO2 T01361039
Observed Flight Rules
Jan-22 @ 04:35 UTC (8 minutes ago) Visual Flight Rules
Visibility Clouds
10 miles
  • Clear skies
Temperatures Readings
Current 14°C / 57°F
Dewpoint -4°C / 25°F
Humidity 29%
Altimeter 29.69" Hg
Pressure 1005.42 hPa
Elevation 797
METAR KPEQ 220435Z AUTO 00000KT 10SM CLR 14/M04 A2969 RMK AO2 T01361039
Observed Flight Rules
Jan-22 @ 04:35 UTC
(8 minutes ago)
VFR
Clouds
  • Clear skies
Temperature Dewpoint
14°C / 57°F -4°C / 25°F
Humidity Altimeter Pressure
29% 29.69" Hg 1005.42 hPa